Latest Coastal Weather Observations for Maria Island

IDT60701

Issued at 6:03 pm EST Friday 22 September 2017 (issued every 10 minutes, with the page automatically refreshed every 10 minutes)

About coastal observations | Map of coastal stations | Coastal observations for TAS | Marine services | Other Formats
Station Details ID: 092124 Name: MARIA ISLAND (POINT LESUEUR) Lat: -42.66 Lon: 148.02 Height: 28.0 m
Data from the previous 72 hours. | See also: Recent months at Maria Island
Date/Time
EST
Temp
°C
Wind Pressure Rain since
9am
mm
Weather Cloud Vis
km
Sea
Height
m
Swell
Dir  Spd
kts
Gust
kts
hPa Trend Height
m
Period
s
Dir
22/06:00pm 12.5 NNE 14 19 1005.2 - 0.0 - - - - - - -
22/05:30pm 12.7 NNE 17 21 1005.2 - 0.0 - - - - - - -
22/05:00pm 13.1 NNE 14 19 1005.3 - 0.0 - - - - - - -
22/04:30pm 13.7 NNE 14 17 1005.6 - 0.0 - - - - - - -
22/04:00pm 13.9 NNE 17 22 1005.6 - 0.0 - - - - - - -
22/03:30pm 14.3 NNE 18 21 1005.5 - 0.0 - - - - - - -
22/03:00pm 15.4 NNE 18 21 1005.4 - 0.0 - - - - - - -
22/02:30pm 15.7 N 15 18 1005.7 - 0.0 - - - - - - -
22/02:00pm 15.9 N 15 17 1005.6 - 0.0 - - - - - - -
22/01:30pm 16.2 N 11 13 1005.8 - 0.0 - - - - - - -
22/01:00pm 15.7 N 10 12 1006.3 - 0.0 - - - - - - -
22/12:30pm 14.9 N 9 12 1006.9 - 0.0 - - - - - - -
22/12:00pm 14.9 N 6 8 1007.4 - 0.0 - - - - - - -
22/11:30am 14.9 N 9 10 1007.6 - 0.0 - - - - - - -
22/11:00am 14.7 N 8 9 1007.9 - 0.0 - - - - - - -
22/10:30am 13.5 N 9 10 1008.1 - 0.0 - - - - - - -
22/10:00am 13.0 N 11 12 1008.3 - 0.0 - - - - - - -
22/09:30am 12.3 N 9 10 1008.4 - 0.0 - - - - - - -
22/09:00am 11.7 N 11 12 1008.4 - 0.0 - - - - - - -
22/08:30am 11.7 N 10 11 1008.1 - 0.0 - - - - - - -
22/08:00am 10.9 N 10 11 1007.9 - 0.0 - - - - - - -
22/07:30am 10.2 N 8 10 1007.6 - 0.0 - - - - - - -
22/07:00am 10.3 NNW 7 8 1007.6 - 0.0 - - - - - - -
22/06:30am 10.1 N 7 9 1007.4 - 0.0 - - - - - - -
22/06:00am 9.6 NNW 8 9 1007.0 - 0.0 - - - - - - -
22/05:30am 10.0 NNW 6 9 1006.7 - 0.0 - - - - - - -
22/05:00am 10.1 NNW 3 4 1006.6 - 0.0 - - - - - - -
22/04:30am 10.5 NNW 4 5 1006.4 - 0.0 - - - - - - -
22/04:00am 10.4 N 4 7 1006.1 - 0.0 - - - - - - -
22/03:30am 11.2 NNW 3 4 1005.9 - 0.0 - - - - - - -
22/03:00am 10.5 NW 5 6 1005.9 - 0.0 - - - - - - -
22/02:30am 10.9 WNW 5 8 1005.9 - 0.0 - - - - - - -
22/02:00am 11.4 WNW 4 6 1006.2 - 0.0 - - - - - - -
22/01:30am 11.0 NW 7 8 1006.3 - 0.0 - - - - - - -
22/01:00am 11.3 NW 6 8 1006.4 - 0.0 - - - - - - -
22/12:30am 11.6 NW 5 7 1006.5 - 0.0 - - - - - - -
22/12:00am 11.6 WNW 9 12 1006.3 - 0.0 - - - - - - -
 
Date/Time
EST
Temp
°C
Wind Pressure Rain since
9am
mm
Weather Cloud Vis
km
Sea
Height
m
Swell
Dir  Spd
kts
Gust
kts
hPa Trend Height
m
Period
s
Dir
21/11:30pm 12.4 WNW 9 11 1006.3 - 0.0 - - - - - - -
21/11:00pm 12.0 W 8 10 1006.2 - 0.0 - - - - - - -
21/10:30pm 12.5 W 14 18 1005.7 - 0.0 - - - - - - -
21/10:00pm 12.5 WNW 10 13 1005.5 - 0.0 - - - - - - -
21/09:30pm 12.4 NW 10 12 1005.2 - 0.0 - - - - - - -
21/09:00pm 12.5 NW 11 12 1004.8 - 0.0 - - - - - - -
21/08:30pm 12.6 NW 11 13 1004.2 - 0.0 - - - - - - -
21/08:00pm 13.1 NNW 12 13 1003.9 - 0.0 - - - - - - -
21/07:30pm 13.8 NNW 16 18 1003.2 - 0.0 - - - - - - -
21/07:00pm 13.7 N 16 18 1002.6 - 0.0 - - - - - - -
21/06:30pm 13.7 NNW 13 16 1002.0 - 0.0 - - - - - - -
21/06:00pm 14.1 N 15 17 1001.5 - 0.0 - - - - - - -
21/05:30pm 15.0 NNW 15 18 1001.3 - 0.0 - - - - - - -
21/05:00pm 15.3 NNW 18 22 1001.1 - 0.0 - - - - - - -
21/04:30pm 16.1 N 22 26 1000.5 - 0.0 - - - - - - -
21/04:00pm 16.6 NNW 26 30 1000.2 - 0.0 - - - - - - -
21/03:30pm 17.1 N 21 27 1000.5 - 0.0 - - - - - - -
21/03:00pm 15.0 N 17 20 1000.9 - 0.0 - - - - - - -
21/02:30pm 14.4 N 22 26 1001.0 - 0.0 - - - - - - -
21/02:00pm 14.6 N 23 28 1001.0 - 0.0 - - - - - - -
21/01:30pm 16.6 NNE 23 27 1001.3 - 0.0 - - - - - - -
21/01:00pm 16.7 NNE 18 22 1002.3 - 0.0 - - - - - - -
21/12:30pm 15.5 N 20 27 1003.1 - 0.0 - - - - - - -
21/12:00pm 15.6 NNW 23 31 1004.6 - 0.0 - - - - - - -
21/11:30am 14.4 N 20 25 1005.9 - 0.0 - - - - - - -
21/11:00am 13.2 NNW 24 29 1006.2 - 0.0 - - - - - - -
21/10:30am 12.7 NNW 18 28 1006.7 - 0.0 - - - - - - -
21/10:26am 12.7 NNW 16 23 1007.2 - 0.0 - - - - - - -
21/10:00am 12.5 N 10 12 1007.5 - 0.0 - - - - - - -
21/09:30am 12.3 N 14 17 1007.9 - 0.0 - - - - - - -
21/09:00am 12.4 N 15 20 1007.9 - 0.0 - - - - - - -
21/08:30am 12.2 N 17 20 1007.9 - 0.0 - - - - - - -
21/08:00am 12.6 N 18 23 1007.9 - 0.0 - - - - - - -
21/07:58am 12.6 N 16 23 1007.9 - 0.0 - - - - - - -
21/07:30am 12.1 N 11 13 1008.5 - 0.0 - - - - - - -
21/07:00am 12.2 N 14 19 1008.6 - 0.0 - - - - - - -
21/06:30am 11.9 NNE 16 20 1008.3 - 0.0 - - - - - - -
21/06:00am 11.9 N 17 25 1008.1 - 0.0 - - - - - - -
21/05:30am 11.6 N 17 22 1009.0 - 0.0 - - - - - - -
21/05:00am 11.4 N 16 19 1008.9 - 0.0 - - - - - - -
21/04:30am 11.3 N 11 14 1008.9 - 0.0 - - - - - - -
21/04:00am 11.4 N 15 17 1009.3 - 0.0 - - - - - - -
21/03:30am 11.3 N 10 12 1009.5 - 0.0 - - - - - - -
21/03:00am 11.4 N 10 12 1009.8 - 0.0 - - - - - - -
21/02:30am 11.5 N 12 14 1009.6 - 0.0 - - - - - - -
21/02:00am 11.5 N 12 15 1010.0 - 0.0 - - - - - - -
21/01:30am 11.4 N 11 15 1010.6 - 0.0 - - - - - - -
21/01:00am 11.1 N 9 10 1011.6 - 0.0 - - - - - - -
21/12:30am 10.9 NNW 7 8 1012.2 - 0.0 - - - - - - -
21/12:00am 11.1 NNW 10 12 1012.0 - 0.0 - - - - - - -
 
Date/Time
EST
Temp
°C
Wind Pressure Rain since
9am
mm
Weather Cloud Vis
km
Sea
Height
m
Swell
Dir  Spd
kts
Gust
kts
hPa Trend Height
m
Period
s
Dir
20/11:30pm 11.2 N 13 16 1011.8 - 0.0 - - - - - - -
20/11:00pm 11.1 N 12 15 1011.9 - 0.0 - - - - - - -
20/10:30pm 10.9 N 16 20 1011.8 - 0.0 - - - - - - -
20/10:00pm 11.2 N 19 22 1011.6 - 0.0 - - - - - - -
20/09:30pm 11.5 N 14 17 1012.4 - 0.0 - - - - - - -
20/09:00pm 11.6 NNE 12 13 1011.8 - 0.0 - - - - - - -
20/08:30pm 11.4 N 13 15 1012.1 - 0.0 - - - - - - -
20/08:00pm 11.2 N 13 15 1012.6 - 0.0 - - - - - - -
20/07:30pm 11.2 N 15 18 1012.7 - 0.0 - - - - - - -
20/07:00pm 11.2 NNE 12 15 1013.0 - 0.0 - - - - - - -
20/06:30pm 10.9 N 11 13 1012.4 - 0.0 - - - - - - -
20/06:00pm 10.9 NNE 9 13 1011.9 - 0.0 - - - - - - -
20/05:30pm 11.5 N 14 15 1012.0 - 0.0 - - - - - - -
20/05:00pm 11.9 N 11 14 1012.0 - 0.0 - - - - - - -
20/04:30pm 11.7 N 12 14 1011.8 - 0.0 - - - - - - -
20/04:00pm 11.9 NNE 12 15 1011.6 - 0.0 - - - - - - -
20/03:30pm 12.4 NNE 11 13 1011.9 - 0.0 - - - - - - -
20/03:00pm 12.6 N 13 15 1012.1 - 0.0 - - - - - - -
20/02:30pm 13.7 N 11 13 1012.4 - 0.0 - - - - - - -
20/02:00pm 13.3 N 12 14 1012.8 - 0.0 - - - - - - -
20/01:30pm 13.4 N 11 13 1013.2 - 0.0 - - - - - - -
20/01:00pm 12.5 N 10 11 1013.9 - 0.0 - - - - - - -
20/12:30pm 12.0 N 9 11 1014.6 - 0.0 - - - - - - -
20/12:00pm 12.0 N 10 11 1014.8 - 0.0 - - - - - - -
20/11:30am 11.5 N 8 9 1015.3 - 0.0 - - - - - - -
20/11:00am 10.8 NNE 8 10 1015.7 - 0.0 - - - - - - -
20/10:30am 9.8 N 8 10 1016.3 - 0.0 - - - - - - -
20/10:00am 9.7 N 10 11 1016.7 - 0.0 - - - - - - -
20/09:30am 9.2 N 8 9 1017.2 - 0.0 - - - - - - -
20/09:00am 9.2 N 8 9 1017.4 - 0.0 - - - - - - -
20/08:30am 8.0 N 7 9 1017.6 - 0.0 - - - - - - -
20/08:00am 8.0 NNW 7 10 1017.5 - 0.0 - - - - - - -
20/07:30am 6.9 NNW 6 7 1017.6 - 0.0 - - - - - - -
20/07:00am 6.8 NW 9 11 1017.5 - 0.0 - - - - - - -
20/06:30am 6.0 WNW 9 10 1017.3 - 0.0 - - - - - - -
20/06:00am 6.1 WNW 10 11 1017.1 - 0.0 - - - - - - -
20/05:30am 5.5 WNW 10 12 1016.6 - 0.0 - - - - - - -
20/05:00am 5.3 WNW 10 11 1016.6 - 0.0 - - - - - - -
20/04:30am 5.6 WNW 7 8 1016.4 - 0.0 - - - - - - -
20/04:00am 6.0 WNW 5 8 1016.5 - 0.0 - - - - - - -
20/03:30am 6.3 W 8 9 1016.4 - 0.0 - - - - - - -
20/03:00am 6.5 W 10 12 1016.6 - 0.0 - - - - - - -
20/02:30am 6.4 W 8 10 1016.9 - 0.0 - - - - - - -
20/02:00am 7.1 W 12 15 1016.7 - 0.0 - - - - - - -
20/01:30am 7.2 W 14 17 1016.6 - 0.0 - - - - - - -
20/01:00am 7.1 W 9 11 1017.1 - 0.0 - - - - - - -
20/12:30am 7.5 WSW 10 13 1017.1 - 0.0 - - - - - - -
20/12:00am 7.5 W 10 13 1017.0 - 0.0 - - - - - - -
 
Date/Time
EST
Temp
°C
Wind Pressure Rain since
9am
mm
Weather Cloud Vis
km
Sea
Height
m
Swell
Dir  Spd
kts
Gust
kts
hPa Trend Height
m
Period
s
Dir
19/11:30pm 7.5 W 7 9 1017.0 - 0.0 - - - - - - -
19/11:00pm 7.7 WSW 11 13 1017.0 - 0.0 - - - - - - -
19/10:30pm 8.1 SW 15 19 1016.7 - 0.0 - - - - - - -
19/10:00pm 8.0 WSW 13 19 1016.6 - 0.0 - - - - - - -
19/09:30pm 8.1 WSW 16 20 1016.1 - 0.0 - - - - - - -
19/09:00pm 8.1 WSW 15 20 1016.3 - 0.0 - - - - - - -
19/08:30pm 8.1 WSW 14 17 1015.9 - 0.0 - - - - - - -
19/08:00pm 8.1 WSW 14 20 1015.6 - 0.0 - - - - - - -
19/07:30pm 8.6 WSW 16 25 1015.3 - 0.0 - - - - - - -
19/07:00pm 8.5 WSW 12 16 1014.6 - 0.0 - - - - - - -
19/06:30pm 8.2 SW 12 15 1014.3 - 0.0 - - - - - - -

Other Formats:

Comma delimited format used in spreadsheet applications
http://www.bom.gov.au/fwo/IDT60701/IDT60701.95988.axf

JavaScript Object Notation format (JSON) in row-major order
http://www.bom.gov.au/fwo/IDT60701/IDT60701.95988.json